createdAt,value
2022-11-29T00:02:03.874Z,100533.88
2022-11-29T00:04:33.529Z,100538.22
2022-11-29T00:07:01.611Z,100542.56
2022-11-29T00:09:30.294Z,100531.31
2022-11-29T00:12:13.423Z,100527.84
2022-11-29T00:14:42.576Z,100516.63
2022-11-29T00:17:11.059Z,100518.41
2022-11-29T00:19:40.712Z,100517.59
2022-11-29T00:22:08.771Z,100514.94
2022-11-29T00:24:36.939Z,100514.03
2022-11-29T00:27:05.262Z,100504.56
2022-11-29T00:29:33.496Z,100508.00
2022-11-29T00:32:01.792Z,100506.28
2022-11-29T00:34:30.257Z,100503.66
2022-11-29T00:36:59.769Z,100504.50
2022-11-29T00:39:28.083Z,100503.66
2022-11-29T00:41:57.311Z,100502.78
2022-11-29T00:44:25.670Z,100506.22
2022-11-29T00:46:53.804Z,100503.66
2022-11-29T00:49:22.133Z,100495.06
2022-11-29T00:51:50.237Z,100500.22
2022-11-29T00:54:19.818Z,100495.06
2022-11-29T00:56:47.922Z,100498.50
2022-11-29T00:59:16.013Z,100496.75
2022-11-29T01:01:44.173Z,100495.03
2022-11-29T01:04:12.393Z,100494.16
2022-11-29T01:06:40.526Z,100486.44
2022-11-29T01:09:09.146Z,100492.50
2022-11-29T01:11:38.899Z,100485.56
2022-11-29T01:14:07.058Z,100489.84
2022-11-29T01:16:36.605Z,100500.25
2022-11-29T01:19:05.168Z,100470.06
2022-11-29T01:21:33.286Z,100484.75
2022-11-29T01:24:02.119Z,100496.84
2022-11-29T01:26:32.035Z,100487.34
2022-11-29T01:29:04.326Z,100488.22
2022-11-29T01:31:36.316Z,100489.94
2022-11-29T01:34:06.689Z,100491.72
2022-11-29T01:36:34.969Z,100483.91
2022-11-29T01:39:05.132Z,100476.09
2022-11-29T01:41:35.617Z,100488.16
2022-11-29T01:44:07.780Z,100479.44
2022-11-29T01:46:37.489Z,100484.63
2022-11-29T01:49:10.802Z,100481.22
2022-11-29T01:51:42.456Z,100489.84
2022-11-29T01:54:12.139Z,100486.38
2022-11-29T01:56:40.950Z,100488.13
2022-11-29T01:59:12.919Z,100488.97
2022-11-29T02:01:41.063Z,100479.47
2022-11-29T02:04:10.065Z,100485.53
2022-11-29T02:06:39.679Z,100490.75
2022-11-29T02:09:19.143Z,100491.66
2022-11-29T02:12:09.170Z,100483.94
2022-11-29T02:15:05.516Z,100490.00
2022-11-29T02:17:44.950Z,100493.44
2022-11-29T02:20:52.009Z,100486.53
2022-11-29T02:23:41.887Z,100487.41
2022-11-29T02:26:22.674Z,100496.91
2022-11-29T02:29:13.370Z,100502.16
2022-11-29T02:32:20.642Z,100506.53
2022-11-29T02:35:12.290Z,100507.44
2022-11-29T02:38:00.380Z,100507.44
2022-11-29T02:41:02.332Z,100506.63
2022-11-29T02:43:45.825Z,100505.78
2022-11-29T02:46:41.083Z,100501.41
2022-11-29T02:49:17.961Z,100509.22
2022-11-29T02:51:55.254Z,100495.38
2022-11-29T02:54:28.677Z,100509.19
2022-11-29T02:57:01.626Z,100501.38
2022-11-29T02:59:42.723Z,100502.25
2022-11-29T03:02:21.666Z,100498.81
2022-11-29T03:04:55.766Z,100504.88
2022-11-29T03:07:33.659Z,100503.13
2022-11-29T03:10:09.281Z,100501.38
2022-11-29T03:12:42.840Z,100497.94
2022-11-29T03:15:24.020Z,100499.69
2022-11-29T03:18:02.952Z,100509.16
2022-11-29T03:20:41.279Z,100509.19
2022-11-29T03:23:19.970Z,100512.63
2022-11-29T03:25:56.142Z,100505.72
2022-11-29T03:28:28.526Z,100505.72
2022-11-29T03:31:05.559Z,100496.19
2022-11-29T03:33:42.794Z,100498.78
2022-11-29T03:36:19.949Z,100509.16
2022-11-29T03:38:49.589Z,100508.31
2022-11-29T03:41:25.573Z,100514.34
2022-11-29T03:44:02.374Z,100505.72
2022-11-29T03:46:36.380Z,100509.16
2022-11-29T03:49:10.222Z,100507.38
2022-11-29T03:51:52.521Z,100508.28
2022-11-29T03:54:28.231Z,100514.31
2022-11-29T03:56:56.955Z,100516.06
2022-11-29T03:59:48.395Z,100523.06
2022-11-29T04:02:58.554Z,100517.88
2022-11-29T04:06:03.238Z,100523.94
2022-11-29T04:09:16.627Z,100521.34
2022-11-29T04:12:21.744Z,100527.38
2022-11-29T04:15:23.319Z,100529.94
2022-11-29T04:18:33.557Z,100520.41
2022-11-29T04:21:23.948Z,100532.47
2022-11-29T04:24:14.330Z,100535.06
2022-11-29T04:27:21.340Z,100531.66
2022-11-29T04:30:07.213Z,100532.47
2022-11-29T04:33:01.563Z,100530.75
2022-11-29T04:35:43.266Z,100532.47
2022-11-29T04:38:40.971Z,100528.19
2022-11-29T04:41:44.361Z,100527.31
2022-11-29T04:44:27.588Z,100533.41
2022-11-29T04:47:14.052Z,100530.81
2022-11-29T04:50:05.761Z,100539.44
2022-11-29T04:52:47.309Z,100537.72
2022-11-29T04:55:29.414Z,100545.47
2022-11-29T04:58:05.475Z,100548.91
2022-11-29T05:00:44.675Z,100548.91
2022-11-29T05:03:21.556Z,100548.91
2022-11-29T05:05:56.560Z,100561.03
2022-11-29T05:08:34.518Z,100561.91
2022-11-29T05:11:11.888Z,100562.84
2022-11-29T05:13:50.119Z,100565.47
2022-11-29T05:16:33.942Z,100579.31
2022-11-29T05:19:20.184Z,100567.19
2022-11-29T05:22:00.232Z,100568.88
2022-11-29T05:24:40.573Z,100556.81
2022-11-29T05:27:19.568Z,100567.19
2022-11-29T05:29:56.602Z,100562.91
2022-11-29T05:32:32.743Z,100574.16
2022-11-29T05:35:18.837Z,100569.84
2022-11-29T05:37:51.563Z,100571.59
2022-11-29T05:40:28.549Z,100570.69
2022-11-29T05:43:08.034Z,100581.06
2022-11-29T05:45:43.889Z,100581.06
2022-11-29T05:48:25.728Z,100578.50
2022-11-29T05:51:10.695Z,100583.69
2022-11-29T05:53:48.331Z,100573.34
2022-11-29T05:56:26.985Z,100576.81
2022-11-29T05:59:00.351Z,100569.88
2022-11-29T06:01:32.946Z,100579.38
2022-11-29T06:04:14.757Z,100574.19
2022-11-29T06:06:49.301Z,100581.09
2022-11-29T06:09:24.626Z,100577.66
2022-11-29T06:11:58.572Z,100587.13
2022-11-29T06:14:43.095Z,100586.22
2022-11-29T06:17:39.640Z,100593.16
2022-11-29T06:20:27.739Z,100596.59
2022-11-29T06:23:18.056Z,100597.50
2022-11-29T06:26:08.534Z,100601.84
2022-11-29T06:28:53.095Z,100594.03
2022-11-29T06:31:26.293Z,100594.91
2022-11-29T06:34:02.312Z,100601.00
2022-11-29T06:36:37.408Z,100610.50
2022-11-29T06:39:06.693Z,100598.41
2022-11-29T06:41:35.314Z,100611.38
2022-11-29T06:44:03.945Z,100612.25
2022-11-29T06:46:45.960Z,100594.97
2022-11-29T06:49:21.300Z,100613.13
2022-11-29T06:52:03.709Z,100607.06
2022-11-29T06:54:43.343Z,100616.53
2022-11-29T06:57:20.410Z,100616.56
2022-11-29T07:00:02.912Z,100615.69
2022-11-29T07:03:14.052Z,100615.66
2022-11-29T07:05:42.939Z,100597.53
2022-11-29T07:08:17.361Z,100607.88
2022-11-29T07:10:46.531Z,100610.41
2022-11-29T07:13:15.302Z,100614.72
2022-11-29T07:15:49.686Z,100617.28
2022-11-29T07:18:28.763Z,100623.34
2022-11-29T07:21:11.631Z,100625.06
2022-11-29T07:23:47.370Z,100612.09
2022-11-29T07:26:31.367Z,100609.50
2022-11-29T07:29:12.307Z,100613.78
2022-11-29T07:31:51.288Z,100629.38
2022-11-29T07:34:25.640Z,100618.16
2022-11-29T07:37:03.045Z,100619.91
2022-11-29T07:39:43.089Z,100619.88
2022-11-29T07:42:20.242Z,100625.03
2022-11-29T07:44:57.703Z,100623.31
2022-11-29T07:47:25.778Z,100629.38
2022-11-29T07:49:53.873Z,100631.13
2022-11-29T07:52:23.575Z,100627.66
2022-11-29T07:54:52.972Z,100632.75
2022-11-29T07:57:21.320Z,100626.69
2022-11-29T07:59:49.675Z,100624.13
2022-11-29T08:02:27.796Z,100628.47
2022-11-29T08:04:55.917Z,100626.75
2022-11-29T08:07:24.055Z,100620.59
2022-11-29T08:09:53.451Z,100626.63
2022-11-29T08:12:21.916Z,100627.56
2022-11-29T08:14:49.963Z,100630.16
2022-11-29T08:17:18.976Z,100634.47
2022-11-29T08:19:47.381Z,100634.47
2022-11-29T08:22:15.748Z,100616.25
2022-11-29T08:24:44.353Z,100621.47
2022-11-29T08:27:13.923Z,100618.91
2022-11-29T08:29:41.918Z,100617.97
2022-11-29T08:32:10.237Z,100625.72
2022-11-29T08:34:38.573Z,100624.84
2022-11-29T08:37:06.693Z,100624.84
2022-11-29T08:39:36.213Z,100627.41
2022-11-29T08:42:04.318Z,100629.13
2022-11-29T08:44:34.049Z,100633.41
2022-11-29T08:47:20.145Z,100638.63
2022-11-29T08:50:02.038Z,100630.00
2022-11-29T08:52:48.241Z,100632.66
2022-11-29T08:55:16.540Z,100628.25
2022-11-29T08:57:44.550Z,100631.69
2022-11-29T09:00:15.561Z,100627.38
2022-11-29T09:02:43.701Z,100633.47
2022-11-29T09:05:12.966Z,100630.88
2022-11-29T09:07:41.148Z,100633.44
2022-11-29T09:10:11.646Z,100634.31
2022-11-29T09:12:41.409Z,100620.28
2022-11-29T09:15:12.139Z,100619.34
2022-11-29T09:17:41.640Z,100624.53
2022-11-29T09:20:10.668Z,100618.41
2022-11-29T09:22:38.772Z,100617.50
2022-11-29T09:25:07.940Z,100615.91
2022-11-29T09:27:35.929Z,100612.31
2022-11-29T09:30:04.032Z,100610.59
2022-11-29T09:32:32.403Z,100611.38
2022-11-29T09:35:02.297Z,100609.63
2022-11-29T09:37:30.437Z,100613.91
2022-11-29T09:39:58.444Z,100613.91
2022-11-29T09:42:41.341Z,100605.38
2022-11-29T09:45:15.182Z,100612.22
2022-11-29T09:48:06.422Z,100604.41
2022-11-29T09:50:43.070Z,100614.78
2022-11-29T09:53:26.598Z,100614.81
2022-11-29T09:56:12.397Z,100607.91
2022-11-29T09:58:47.555Z,100614.94
2022-11-29T10:01:23.847Z,100599.22
2022-11-29T10:03:55.761Z,100598.38
2022-11-29T10:06:31.047Z,100582.69
2022-11-29T10:09:05.494Z,100589.53
2022-11-29T10:11:38.422Z,100579.97
2022-11-29T10:14:13.658Z,100586.00
2022-11-29T10:16:46.324Z,100583.59
2022-11-29T10:19:22.715Z,100587.13
2022-11-29T10:21:59.262Z,100586.28
2022-11-29T10:24:30.775Z,100574.94
2022-11-29T10:26:59.349Z,100572.22
2022-11-29T10:29:28.056Z,100564.56
2022-11-29T10:31:59.468Z,100572.34
2022-11-29T10:34:28.077Z,100566.19
2022-11-29T10:37:02.746Z,100574.78
2022-11-29T10:39:37.367Z,100572.16
2022-11-29T10:42:06.720Z,100576.72
2022-11-29T10:44:35.387Z,100579.34
2022-11-29T10:47:10.663Z,100561.06
2022-11-29T10:49:40.351Z,100570.38
2022-11-29T10:52:19.545Z,100563.41
2022-11-29T10:54:48.581Z,100558.31
2022-11-29T10:57:19.145Z,100567.09
2022-11-29T11:00:01.048Z,100565.34
2022-11-29T11:02:30.281Z,100556.63
2022-11-29T11:05:00.241Z,100562.50
2022-11-29T11:07:33.329Z,100558.00
2022-11-29T11:10:02.789Z,100556.25
2022-11-29T11:12:33.339Z,100558.19
2022-11-29T11:15:28.763Z,100559.00
2022-11-29T11:17:59.424Z,100560.59
2022-11-29T11:20:30.330Z,100556.38
2022-11-29T11:23:02.867Z,100567.72
2022-11-29T11:25:34.755Z,100565.97
2022-11-29T11:28:15.619Z,100570.28
2022-11-29T11:30:52.338Z,100569.41
2022-11-29T11:33:25.265Z,100561.59
2022-11-29T11:36:05.151Z,100565.13
2022-11-29T11:38:35.993Z,100561.78
2022-11-29T11:41:18.025Z,100566.78
2022-11-29T11:43:55.841Z,100559.81
2022-11-29T11:46:24.547Z,100562.50
2022-11-29T11:48:54.465Z,100563.25
2022-11-29T11:51:27.212Z,100564.22
2022-11-29T11:53:58.853Z,100561.56
2022-11-29T11:56:36.877Z,100566.75
2022-11-29T11:59:05.399Z,100568.56
2022-11-29T12:01:38.746Z,100562.50
2022-11-29T12:04:13.048Z,100571.94
2022-11-29T12:06:50.511Z,100562.31
2022-11-29T12:09:31.980Z,100553.59
2022-11-29T12:12:11.033Z,100563.91
2022-11-29T12:14:50.925Z,100569.31
2022-11-29T12:17:28.739Z,100561.47
2022-11-29T12:20:23.748Z,100567.50
2022-11-29T12:23:18.566Z,100559.47
2022-11-29T12:25:53.722Z,100552.47
2022-11-29T12:28:29.616Z,100560.16
2022-11-29T12:31:04.616Z,100554.97
2022-11-29T12:33:44.950Z,100550.53
2022-11-29T12:36:27.389Z,100546.38
2022-11-29T12:39:05.220Z,100535.94
2022-11-29T12:41:50.937Z,100541.16
2022-11-29T12:44:34.587Z,100543.59
2022-11-29T12:50:22.812Z,100555.72
2022-11-29T12:53:03.051Z,100536.66
2022-11-29T12:55:40.823Z,100535.81
2022-11-29T12:58:18.837Z,100541.72
2022-11-29T13:00:58.884Z,100540.69
2022-11-29T13:03:38.434Z,100542.41
2022-11-29T13:06:22.036Z,100539.91
2022-11-29T13:09:02.886Z,100541.56
2022-11-29T13:11:33.709Z,100539.00
2022-11-29T13:14:41.486Z,100542.56
2022-11-29T13:17:05.096Z,100539.19
2022-11-29T13:19:38.088Z,100540.84
2022-11-29T13:22:15.068Z,100540.72
2022-11-29T13:24:45.453Z,100540.81
2022-11-29T13:27:19.431Z,100554.75
2022-11-29T13:29:50.292Z,100544.50
2022-11-29T13:32:31.605Z,100540.09
2022-11-29T13:35:04.564Z,100541.66
2022-11-29T13:37:39.215Z,100541.59
2022-11-29T13:40:23.134Z,100545.16
2022-11-29T13:42:59.643Z,100554.00
2022-11-29T13:45:38.412Z,100541.88
2022-11-29T13:48:33.845Z,100541.03
2022-11-29T13:51:24.243Z,100548.84
2022-11-29T13:53:53.460Z,100553.13
2022-11-29T13:56:36.849Z,100549.75
2022-11-29T13:59:10.021Z,100553.19
2022-11-29T14:01:51.659Z,100553.22
2022-11-29T14:04:28.523Z,100551.56
2022-11-29T14:07:12.363Z,100553.41
2022-11-29T14:09:48.661Z,100547.28
2022-11-29T14:12:28.848Z,100542.06
2022-11-29T14:15:01.721Z,100556.00
2022-11-29T14:17:46.768Z,100549.94
2022-11-29T14:20:51.216Z,100550.88
2022-11-29T14:23:33.234Z,100548.34
2022-11-29T14:26:28.380Z,100542.28
2022-11-29T14:28:57.467Z,100545.84
2022-11-29T14:31:48.577Z,100544.88
2022-11-29T14:34:36.328Z,100547.44
2022-11-29T14:37:16.323Z,100556.16
2022-11-29T14:39:47.731Z,100549.22
2022-11-29T14:42:19.194Z,100546.56
2022-11-29T14:44:52.304Z,100543.97
2022-11-29T14:47:26.444Z,100541.47
2022-11-29T14:49:59.130Z,100544.88
2022-11-29T14:52:33.255Z,100543.22
2022-11-29T14:55:18.534Z,100542.44
2022-11-29T14:58:17.047Z,100542.34
2022-11-29T15:01:02.709Z,100539.75
2022-11-29T15:03:37.627Z,100545.72
2022-11-29T15:06:26.871Z,100551.88
2022-11-29T15:09:04.068Z,100551.81
2022-11-29T15:11:40.599Z,100547.53
2022-11-29T15:14:17.386Z,100544.06
2022-11-29T15:17:00.704Z,100540.66
2022-11-29T15:20:02.706Z,100540.59
2022-11-29T15:22:44.065Z,100551.03
2022-11-29T15:25:14.941Z,100536.31
2022-11-29T15:27:52.411Z,100541.50
2022-11-29T15:30:22.912Z,100543.22
2022-11-29T15:32:51.158Z,100539.78
2022-11-29T15:35:21.044Z,100538.00
2022-11-29T15:37:53.288Z,100543.31
2022-11-29T15:40:24.543Z,100537.22
2022-11-29T15:42:58.110Z,100527.75
2022-11-29T15:45:30.263Z,100532.06
2022-11-29T15:48:13.633Z,100526.88
2022-11-29T15:51:28.309Z,100524.41
2022-11-29T15:54:12.751Z,100527.81
2022-11-29T15:56:46.240Z,100532.19
2022-11-29T15:59:18.356Z,100540.03
2022-11-29T16:01:50.147Z,100543.47
2022-11-29T16:04:21.810Z,100544.31
2022-11-29T16:06:52.255Z,100551.19
2022-11-29T16:09:34.376Z,100559.84
2022-11-29T16:12:03.530Z,100564.13
2022-11-29T16:14:32.210Z,100563.25
2022-11-29T16:17:03.803Z,100558.09
2022-11-29T16:19:34.759Z,100559.75
2022-11-29T16:22:15.688Z,100548.59
2022-11-29T16:24:55.079Z,100554.59
2022-11-29T16:27:23.910Z,100556.34
2022-11-29T16:29:55.425Z,100557.28
2022-11-29T16:32:28.599Z,100565.06
2022-11-29T16:34:58.567Z,100565.88
2022-11-29T16:37:28.113Z,100567.59
2022-11-29T16:40:01.482Z,100564.97
2022-11-29T16:42:32.116Z,100574.38
2022-11-29T16:45:34.313Z,100572.69
2022-11-29T16:48:03.176Z,100580.59
2022-11-29T16:50:32.748Z,100582.28
2022-11-29T16:53:35.168Z,100582.34
2022-11-29T16:56:05.587Z,100586.63
2022-11-29T16:58:40.146Z,100583.19
2022-11-29T17:01:26.391Z,100585.78
2022-11-29T17:03:55.811Z,100591.03
2022-11-29T17:06:25.577Z,100596.25
2022-11-29T17:08:55.906Z,100605.75
2022-11-29T17:11:25.323Z,100598.88
2022-11-29T17:13:53.948Z,100599.72
2022-11-29T17:16:23.966Z,100600.56
2022-11-29T17:18:55.871Z,100595.38
2022-11-29T17:21:28.482Z,100606.59
2022-11-29T17:23:56.864Z,100604.00
2022-11-29T17:26:27.851Z,100599.66
2022-11-29T17:28:56.410Z,100592.66
2022-11-29T17:31:25.704Z,100596.16
2022-11-29T17:33:54.431Z,100605.59
2022-11-29T17:36:23.673Z,100609.06
2022-11-29T17:38:53.117Z,100602.19
2022-11-29T17:41:23.874Z,100599.47
2022-11-29T17:43:55.405Z,100602.97
2022-11-29T17:46:28.321Z,100604.63
2022-11-29T17:48:56.982Z,100616.72
2022-11-29T17:54:14.416Z,100608.00
2022-11-29T17:56:43.125Z,100596.81
2022-11-29T17:59:13.610Z,100605.38
2022-11-29T18:01:42.149Z,100596.78
2022-11-29T18:04:10.532Z,100597.56
2022-11-29T18:06:41.001Z,100606.22
2022-11-29T18:09:11.080Z,100594.97
2022-11-29T18:11:47.716Z,100594.13
2022-11-29T18:14:21.033Z,100599.28
2022-11-29T18:16:50.461Z,100600.97
2022-11-29T18:19:20.940Z,100582.00
2022-11-29T18:21:50.260Z,100601.00
2022-11-29T18:24:19.864Z,100596.69
2022-11-29T18:26:51.402Z,100602.72
2022-11-29T18:29:22.051Z,100606.19
2022-11-29T18:31:50.920Z,100605.28
2022-11-29T18:34:19.341Z,100608.72
2022-11-29T18:36:49.947Z,100614.75
2022-11-29T18:39:19.752Z,100617.38
2022-11-29T18:41:50.941Z,100619.91
2022-11-29T18:44:24.792Z,100616.38
2022-11-29T18:46:53.314Z,100621.59
2022-11-29T18:49:21.892Z,100611.19
2022-11-29T18:51:53.365Z,100612.97
2022-11-29T18:54:21.928Z,100618.16
2022-11-29T18:56:53.370Z,100611.31
2022-11-29T18:59:25.175Z,100613.78
2022-11-29T19:01:53.773Z,100613.84
2022-11-29T19:04:22.796Z,100619.03
2022-11-29T19:06:51.995Z,100611.31
2022-11-29T19:09:25.915Z,100607.00
2022-11-29T19:11:56.088Z,100601.88
2022-11-29T19:14:26.382Z,100604.53
2022-11-29T19:16:54.811Z,100593.34
2022-11-29T19:19:24.445Z,100607.13
2022-11-29T19:21:55.740Z,100614.91
2022-11-29T19:24:24.348Z,100606.25
2022-11-29T19:26:56.195Z,100609.72
2022-11-29T19:29:26.318Z,100614.97
2022-11-29T19:31:55.879Z,100627.06
2022-11-29T19:34:24.447Z,100622.78
2022-11-29T19:36:55.410Z,100624.47
2022-11-29T19:39:24.329Z,100620.16
2022-11-29T19:41:53.553Z,100628.75
2022-11-29T19:44:26.518Z,100621.84
2022-11-29T19:47:00.394Z,100616.63
2022-11-29T19:49:28.741Z,100609.72
2022-11-29T19:51:57.335Z,100608.81
2022-11-29T19:54:26.521Z,100613.13
2022-11-29T19:56:56.316Z,100617.47
2022-11-29T19:59:24.996Z,100617.50
2022-11-29T20:01:54.229Z,100609.72
2022-11-29T20:04:27.375Z,100616.63
2022-11-29T20:06:56.207Z,100610.53
2022-11-29T20:09:24.809Z,100609.72
2022-11-29T20:11:54.168Z,100607.94
2022-11-29T20:14:25.382Z,100592.41
2022-11-29T20:16:53.986Z,100602.72
2022-11-29T20:19:23.983Z,100599.28
2022-11-29T20:21:53.406Z,100598.34
2022-11-29T20:24:23.779Z,100607.03
2022-11-29T20:26:53.823Z,100598.41
2022-11-29T20:29:27.745Z,100612.22
2022-11-29T20:31:56.333Z,100593.97
2022-11-29T20:34:27.439Z,100581.91
2022-11-29T20:37:17.941Z,100605.16
2022-11-29T20:39:52.479Z,100602.53
2022-11-29T20:42:45.904Z,100585.22
2022-11-29T20:45:17.645Z,100592.03
2022-11-29T20:47:55.420Z,100600.69
2022-11-29T20:50:27.241Z,100599.75
2022-11-29T20:53:10.207Z,100602.28
2022-11-29T20:55:46.439Z,100602.25
2022-11-29T20:58:17.119Z,100581.44
2022-11-29T21:00:45.849Z,100597.00
2022-11-29T21:03:15.081Z,100600.44
2022-11-29T21:05:49.017Z,100599.50
2022-11-29T21:08:21.442Z,100603.78
2022-11-29T21:10:50.278Z,100605.47
2022-11-29T21:13:20.754Z,100599.34
2022-11-29T21:15:50.737Z,100601.94
2022-11-29T21:18:24.028Z,100602.78
2022-11-29T21:21:03.373Z,100601.97
2022-11-29T21:23:44.471Z,100606.34
2022-11-29T21:26:20.629Z,100619.38
2022-11-29T21:28:59.142Z,100603.59
2022-11-29T21:31:27.906Z,100600.16
2022-11-29T21:33:56.765Z,100601.84
2022-11-29T21:36:26.804Z,100594.06
2022-11-29T21:38:55.704Z,100594.03
2022-11-29T21:41:24.475Z,100610.50
2022-11-29T21:44:08.750Z,100611.31
2022-11-29T21:46:37.820Z,100609.56
2022-11-29T21:49:06.632Z,100612.13
2022-11-29T21:51:36.260Z,100612.09
2022-11-29T21:54:04.491Z,100607.84
2022-11-29T21:56:33.037Z,100600.00
2022-11-29T21:59:01.219Z,100602.66
2022-11-29T22:01:29.706Z,100601.78
2022-11-29T22:03:58.241Z,100599.22
2022-11-29T22:06:28.138Z,100607.00
2022-11-29T22:08:58.259Z,100601.75
2022-11-29T22:11:35.098Z,100595.69
2022-11-29T22:14:18.514Z,100610.38
2022-11-29T22:16:49.244Z,100600.00
2022-11-29T22:19:19.526Z,100596.53
2022-11-29T22:21:49.692Z,100608.66
2022-11-29T22:24:21.166Z,100598.25
2022-11-29T22:26:52.450Z,100599.19
2022-11-29T22:29:21.865Z,100589.53
2022-11-29T22:31:52.951Z,100597.25
2022-11-29T22:34:25.602Z,100593.75
2022-11-29T22:36:54.153Z,100593.75
2022-11-29T22:39:27.691Z,100586.00
2022-11-29T22:41:55.909Z,100580.78
2022-11-29T22:44:24.179Z,100590.25
2022-11-29T22:46:53.011Z,100577.28
2022-11-29T22:49:21.456Z,100591.97
2022-11-29T22:51:50.749Z,100579.75
2022-11-29T22:54:18.934Z,100578.81
2022-11-29T22:56:48.795Z,100584.09
2022-11-29T22:59:17.373Z,100575.38
2022-11-29T23:01:45.983Z,100567.66
2022-11-29T23:04:15.876Z,100571.88
2022-11-29T23:06:45.302Z,100560.66
2022-11-29T23:09:16.693Z,100574.50
2022-11-29T23:11:45.961Z,100574.47
2022-11-29T23:14:15.476Z,100576.13
2022-11-29T23:16:46.936Z,100574.41
2022-11-29T23:19:15.633Z,100563.91
2022-11-29T23:21:45.989Z,100575.22
2022-11-29T23:24:15.957Z,100571.81
2022-11-29T23:26:45.675Z,100565.69
2022-11-29T23:29:17.605Z,100573.47
2022-11-29T23:31:48.545Z,100568.19
2022-11-29T23:34:16.883Z,100563.78
2022-11-29T23:36:51.137Z,100575.13
2022-11-29T23:39:23.109Z,100550.94
2022-11-29T23:41:51.155Z,100573.41
2022-11-29T23:44:20.947Z,100560.28
2022-11-29T23:46:49.234Z,100566.31
2022-11-29T23:49:17.546Z,100573.31
2022-11-29T23:51:45.580Z,100576.78
2022-11-29T23:54:13.638Z,100579.38
2022-11-29T23:56:42.894Z,100574.25
2022-11-29T23:59:11.624Z,100567.28
